Time;durP1;ratioP1;P1;durP2;ratioP2;P2;SDS_P1;SDS_P2;PMS_P1;PMS_P2;Temp;Humidity;BMP_temperature;BMP_pressure;BME280_temperature;BME280_humidity;BME280_pressure;Samples;Min_cycle;Max_cycle;Signal;HPM_P1;HPM_P2
2022/10/01 00:01:10;;;;;;;;;2.00;2.00;;;;;;;;5094111;27;45773;-75
2022/10/01 00:03:36;;;;;;;;;1.67;1.67;;;;;;;;5075617;27;45736;-76
2022/10/01 00:06:10;;;;;;;;;1.67;1.67;;;;;;;;5077820;27;46223;-75
2022/10/01 00:08:36;;;;;;;;;3.00;3.00;;;;;;;;5069342;27;45781;-76
2022/10/01 00:11:13;;;;;;;;;1.00;1.00;;;;;;;;5094492;27;45926;-79
2022/10/01 00:13:39;;;;;;;;;1.67;1.67;;;;;;;;5094642;27;45645;-76
2022/10/01 00:16:07;;;;;;;;;2.33;1.00;;;;;;;;5080182;27;45717;-76
2022/10/01 00:18:36;;;;;;;;;2.67;2.67;;;;;;;;5085550;27;45816;-77
2022/10/01 00:21:04;;;;;;;;;4.00;2.00;;;;;;;;5092703;27;45923;-78
2022/10/01 00:23:30;;;;;;;;;2.00;2.00;;;;;;;;5092303;27;45942;-77
2022/10/01 00:25:55;;;;;;;;;2.00;2.00;;;;;;;;5073808;27;45853;-76
2022/10/01 00:28:21;;;;;;;;;1.00;1.00;;;;;;;;5087268;27;45368;-77
2022/10/01 00:30:46;;;;;;;;;2.67;1.67;;;;;;;;5077478;27;45450;-76
2022/10/01 00:33:12;;;;;;;;;1.33;1.00;;;;;;;;5080581;27;45423;-75
2022/10/01 00:35:38;;;;;;;;;2.00;2.00;;;;;;;;5073555;27;46632;-75
2022/10/01 00:38:03;;;;;;;;;3.00;1.67;;;;;;;;5073370;27;45900;-76
2022/10/01 00:40:28;;;;;;;;;1.00;1.00;;;;;;;;5074262;27;45694;-76
2022/10/01 00:42:53;;;;;;;;;2.00;2.00;;;;;;;;5073970;27;46305;-75
2022/10/01 00:45:19;;;;;;;;;2.00;1.00;;;;;;;;5072478;27;47380;-77
2022/10/01 00:47:49;;;;;;;;;1.00;1.00;;;;;;;;5073891;27;45542;-76
2022/10/01 00:50:15;;;;;;;;;1.00;1.00;;;;;;;;5073523;27;45675;-75
2022/10/01 00:52:42;;;;;;;;;1.00;1.00;;;;;;;;5072459;27;45990;-77
2022/10/01 00:55:15;;;;;;;;;0.00;0.00;;;;;;;;5072447;28;45680;-77
2022/10/01 00:57:41;;;;;;;;;0.33;0.00;;;;;;;;5072717;27;45442;-77
2022/10/01 01:00:08;;;;;;;;;3.67;2.67;;;;;;;;5067738;27;45603;-78
2022/10/01 01:02:34;;;;;;;;;1.00;1.00;;;;;;;;5068217;27;45605;-76
2022/10/01 01:05:00;;;;;;;;;1.00;1.00;;;;;;;;5078072;27;46583;-76
2022/10/01 01:07:27;;;;;;;;;1.00;1.00;;;;;;;;5073414;27;46066;-77
2022/10/01 01:09:53;;;;;;;;;1.00;1.00;;;;;;;;5073719;27;45940;-77
2022/10/01 01:12:18;;;;;;;;;1.00;1.00;;;;;;;;5058333;28;46285;-76
2022/10/01 01:14:50;;;;;;;;;1.00;1.00;;;;;;;;5060846;28;46635;-76
2022/10/01 01:17:32;;;;;;;;;2.00;1.00;;;;;;;;5077284;27;45422;-75
2022/10/01 01:20:07;;;;;;;;;1.00;1.00;;;;;;;;5093790;27;45837;-75
2022/10/01 01:22:36;;;;;;;;;3.00;1.00;;;;;;;;5075048;27;45595;-76
2022/10/01 01:25:07;;;;;;;;;1.67;1.67;;;;;;;;5085037;27;46513;-75
2022/10/01 01:27:37;;;;;;;;;0.33;0.33;;;;;;;;5073352;27;45734;-76
2022/10/01 01:30:14;;;;;;;;;1.00;1.00;;;;;;;;5075688;27;45423;-76
2022/10/01 01:32:49;;;;;;;;;2.33;2.33;;;;;;;;5069045;27;45525;-76
2022/10/01 01:35:19;;;;;;;;;2.67;0.00;;;;;;;;5092473;27;45376;-74
2022/10/01 01:37:49;;;;;;;;;0.33;0.33;;;;;;;;5090070;27;45423;-75
2022/10/01 01:40:16;;;;;;;;;0.33;0.33;;;;;;;;5084033;27;45643;-77
2022/10/01 01:42:42;;;;;;;;;1.00;1.00;;;;;;;;5074015;27;45808;-76
2022/10/01 01:45:10;;;;;;;;;1.00;1.00;;;;;;;;5084758;27;45632;-76
2022/10/01 01:47:37;;;;;;;;;1.00;1.00;;;;;;;;5084760;27;45534;-77
2022/10/01 01:50:03;;;;;;;;;0.00;0.00;;;;;;;;5075401;27;45816;-75
2022/10/01 01:52:29;;;;;;;;;0.33;0.33;;;;;;;;5068804;27;45856;-75
2022/10/01 01:54:55;;;;;;;;;1.00;1.00;;;;;;;;5072023;27;45628;-75
2022/10/01 01:57:21;;;;;;;;;0.00;0.00;;;;;;;;5066306;28;45343;-76
2022/10/01 01:59:47;;;;;;;;;0.00;0.00;;;;;;;;5066700;27;45710;-76
2022/10/01 02:02:15;;;;;;;;;0.00;0.00;;;;;;;;5066990;28;45795;-75
2022/10/01 02:04:45;;;;;;;;;0.00;0.00;;;;;;;;5081437;27;45589;-77
2022/10/01 02:07:29;;;;;;;;;0.00;0.00;;;;;;;;5066466;27;45871;-76
2022/10/01 02:09:54;;;;;;;;;0.67;0.67;;;;;;;;5089665;27;45630;-75
2022/10/01 02:12:19;;;;;;;;;0.00;0.00;;;;;;;;5070683;27;45415;-76
2022/10/01 02:14:52;;;;;;;;;0.00;0.00;;;;;;;;5072814;27;46448;-75
2022/10/01 02:17:30;;;;;;;;;0.33;0.33;;;;;;;;5088393;27;45418;-75
2022/10/01 02:19:58;;;;;;;;;0.00;0.00;;;;;;;;5092332;27;45361;-74
2022/10/01 02:22:29;;;;;;;;;0.00;0.00;;;;;;;;5064370;28;46644;-73
2022/10/01 02:24:56;;;;;;;;;0.00;0.00;;;;;;;;5078343;27;45757;-74
2022/10/01 02:27:29;;;;;;;;;0.67;0.00;;;;;;;;5085727;27;45681;-75
2022/10/01 02:30:00;;;;;;;;;0.00;0.00;;;;;;;;5077051;27;45756;-74
2022/10/01 02:32:27;;;;;;;;;0.00;0.00;;;;;;;;5092874;27;45468;-73
2022/10/01 02:34:53;;;;;;;;;0.00;0.00;;;;;;;;5092279;27;45823;-74
2022/10/01 02:37:21;;;;;;;;;0.00;0.00;;;;;;;;5079076;27;45390;-76
2022/10/01 02:39:49;;;;;;;;;0.00;0.00;;;;;;;;5077412;27;45363;-74
2022/10/01 02:42:17;;;;;;;;;0.00;0.00;;;;;;;;5084208;27;45887;-74
2022/10/01 02:44:44;;;;;;;;;0.33;0.00;;;;;;;;5071927;28;46147;-74
2022/10/01 02:47:24;;;;;;;;;0.00;0.00;;;;;;;;5073556;27;45667;-76
2022/10/01 02:49:50;;;;;;;;;0.00;0.00;;;;;;;;5085421;27;45734;-76
2022/10/01 02:52:15;;;;;;;;;0.00;0.00;;;;;;;;5071735;27;45536;-75
2022/10/01 02:54:47;;;;;;;;;0.00;0.00;;;;;;;;5072039;27;46262;-74
2022/10/01 02:57:25;;;;;;;;;0.00;0.00;;;;;;;;5053451;28;46036;-74
2022/10/01 02:59:51;;;;;;;;;0.00;0.00;;;;;;;;5072041;27;45364;-75
2022/10/01 03:02:17;;;;;;;;;0.00;0.00;;;;;;;;5072143;27;45703;-75
2022/10/01 03:04:42;;;;;;;;;0.00;0.00;;;;;;;;5076401;27;45605;-75
2022/10/01 03:07:07;;;;;;;;;1.00;1.00;;;;;;;;5072593;27;45500;-76
2022/10/01 03:09:33;;;;;;;;;0.00;0.00;;;;;;;;5074052;27;45487;-74
2022/10/01 03:12:00;;;;;;;;;1.00;0.00;;;;;;;;5072220;27;45766;-73
2022/10/01 03:14:26;;;;;;;;;0.00;0.00;;;;;;;;5065519;27;45662;-75
2022/10/01 03:16:52;;;;;;;;;2.00;0.00;;;;;;;;5069028;27;45770;-74
2022/10/01 03:19:17;;;;;;;;;0.00;0.00;;;;;;;;5076023;28;45332;-74
2022/10/01 03:21:43;;;;;;;;;0.67;0.00;;;;;;;;5058564;28;45856;-74
2022/10/01 03:24:08;;;;;;;;;0.00;0.00;;;;;;;;5075858;27;45993;-73
2022/10/01 03:26:33;;;;;;;;;0.00;0.00;;;;;;;;5076365;27;45781;-74
2022/10/01 03:28:59;;;;;;;;;0.00;0.00;;;;;;;;5074926;28;45589;-75
2022/10/01 03:31:24;;;;;;;;;0.00;0.00;;;;;;;;5076764;27;45599;-75
2022/10/01 03:33:50;;;;;;;;;0.00;0.00;;;;;;;;5078548;27;45711;-76
2022/10/01 03:36:15;;;;;;;;;0.00;0.00;;;;;;;;5055143;28;45715;-76
2022/10/01 03:38:41;;;;;;;;;0.00;0.00;;;;;;;;5069322;27;45745;-77
2022/10/01 03:41:06;;;;;;;;;0.00;0.00;;;;;;;;5055235;28;47486;-76
2022/10/01 03:43:31;;;;;;;;;1.00;0.00;;;;;;;;5078142;27;45711;-77
2022/10/01 03:45:56;;;;;;;;;0.00;0.00;;;;;;;;5076499;27;45794;-77
2022/10/01 03:48:22;;;;;;;;;0.00;0.00;;;;;;;;5062531;27;45842;-75
2022/10/01 03:50:52;;;;;;;;;0.00;0.00;;;;;;;;5094373;27;45391;-77
2022/10/01 03:53:17;;;;;;;;;0.00;0.00;;;;;;;;5075502;27;47907;-75
2022/10/01 03:55:43;;;;;;;;;0.00;0.00;;;;;;;;5081806;27;45574;-75
2022/10/01 03:58:08;;;;;;;;;0.00;0.00;;;;;;;;5084408;27;45506;-76
2022/10/01 04:00:33;;;;;;;;;0.00;0.00;;;;;;;;5074687;27;45857;-75
2022/10/01 04:02:59;;;;;;;;;0.00;0.00;;;;;;;;5078760;27;45754;-74
2022/10/01 04:05:25;;;;;;;;;0.00;0.00;;;;;;;;5069962;27;45786;-74
2022/10/01 04:07:50;;;;;;;;;0.00;0.00;;;;;;;;5055626;28;45561;-72
2022/10/01 04:10:15;;;;;;;;;0.00;0.00;;;;;;;;5080710;27;45852;-77
2022/10/01 04:12:41;;;;;;;;;0.00;0.00;;;;;;;;5076764;27;45521;-73
2022/10/01 04:15:06;;;;;;;;;0.00;0.00;;;;;;;;5078285;27;45814;-75
2022/10/01 04:17:32;;;;;;;;;0.00;0.00;;;;;;;;5087484;27;45582;-73
2022/10/01 04:19:59;;;;;;;;;0.00;0.00;;;;;;;;5085688;27;45822;-75
2022/10/01 04:22:24;;;;;;;;;1.00;0.00;;;;;;;;5073711;27;47009;-76
2022/10/01 04:24:49;;;;;;;;;0.00;0.00;;;;;;;;5071293;27;45440;-75
2022/10/01 04:27:15;;;;;;;;;0.00;0.00;;;;;;;;5085589;27;45734;-75
2022/10/01 04:29:40;;;;;;;;;0.00;0.00;;;;;;;;5081946;27;45717;-76
2022/10/01 04:32:05;;;;;;;;;0.00;0.00;;;;;;;;5086689;27;45740;-76
2022/10/01 04:37:18;;;;;;;;;0.00;0.00;;;;;;;;5063633;27;45408;-75
2022/10/01 04:39:43;;;;;;;;;0.00;0.00;;;;;;;;5073999;27;45926;-74
2022/10/01 04:42:09;;;;;;;;;0.00;0.00;;;;;;;;5074103;28;45895;-74
2022/10/01 04:44:34;;;;;;;;;0.00;0.00;;;;;;;;5073009;27;45984;-74
2022/10/01 04:47:00;;;;;;;;;0.25;0.00;;;;;;;;5086848;27;45605;-74
2022/10/01 04:49:25;;;;;;;;;0.00;0.00;;;;;;;;5086817;27;45399;-75
2022/10/01 04:51:51;;;;;;;;;0.00;0.00;;;;;;;;5078085;27;47063;-74
2022/10/01 04:54:16;;;;;;;;;0.00;0.00;;;;;;;;5081178;27;45939;-75
2022/10/01 04:56:41;;;;;;;;;0.00;0.00;;;;;;;;5068826;27;45814;-74
2022/10/01 04:59:07;;;;;;;;;0.00;0.00;;;;;;;;5070036;27;45783;-75
2022/10/01 05:01:32;;;;;;;;;0.00;0.00;;;;;;;;5055096;27;45725;-74
2022/10/01 05:03:58;;;;;;;;;0.00;0.00;;;;;;;;5066108;27;45763;-75
2022/10/01 05:06:23;;;;;;;;;0.00;0.00;;;;;;;;5063722;27;45519;-76
2022/10/01 05:08:49;;;;;;;;;0.00;0.00;;;;;;;;5059355;27;45707;-77
2022/10/01 05:11:15;;;;;;;;;0.00;0.00;;;;;;;;5058522;27;47440;-76
2022/10/01 05:13:41;;;;;;;;;0.00;0.00;;;;;;;;5072193;27;45548;-79
2022/10/01 05:16:06;;;;;;;;;0.00;0.00;;;;;;;;5064344;27;45436;-78
2022/10/01 05:18:32;;;;;;;;;0.00;0.00;;;;;;;;5046645;28;45420;-78
2022/10/01 05:20:57;;;;;;;;;0.00;0.00;;;;;;;;5065875;27;45748;-77
2022/10/01 05:23:23;;;;;;;;;1.00;0.00;;;;;;;;5061289;27;45774;-76
2022/10/01 05:25:48;;;;;;;;;0.00;0.00;;;;;;;;5055552;27;46137;-77
2022/10/01 05:28:15;;;;;;;;;1.00;0.00;;;;;;;;5064584;27;45704;-77
2022/10/01 05:30:40;;;;;;;;;0.00;0.00;;;;;;;;5069669;27;45810;-79
2022/10/01 05:33:05;;;;;;;;;0.00;0.00;;;;;;;;5055830;28;45703;-78
2022/10/01 05:35:31;;;;;;;;;0.00;0.00;;;;;;;;5074399;27;45419;-79
2022/10/01 05:37:58;;;;;;;;;0.00;0.00;;;;;;;;5073037;27;45887;-77
2022/10/01 05:40:26;;;;;;;;;1.50;1.00;;;;;;;;5074677;27;46294;-79
2022/10/01 05:42:51;;;;;;;;;0.00;0.00;;;;;;;;5074909;27;45621;-77
2022/10/01 05:45:19;;;;;;;;;0.00;0.00;;;;;;;;5076596;27;45347;-78
2022/10/01 05:47:47;;;;;;;;;0.00;0.00;;;;;;;;5055668;28;45699;-79
2022/10/01 05:50:13;;;;;;;;;1.00;0.00;;;;;;;;5072254;28;45775;-78
2022/10/01 05:52:41;;;;;;;;;0.00;0.00;;;;;;;;5050748;28;45498;-78
2022/10/01 05:55:08;;;;;;;;;0.00;0.00;;;;;;;;5065949;27;45423;-77
2022/10/01 05:57:33;;;;;;;;;1.00;0.00;;;;;;;;5066304;27;45612;-76
2022/10/01 05:59:59;;;;;;;;;0.00;0.00;;;;;;;;5059138;27;45513;-79
2022/10/01 06:02:25;;;;;;;;;0.00;0.00;;;;;;;;5064685;27;45899;-80
2022/10/01 06:04:51;;;;;;;;;0.00;0.00;;;;;;;;5064114;27;45534;-77
2022/10/01 06:07:16;;;;;;;;;0.00;0.00;;;;;;;;5066341;27;45536;-78
2022/10/01 06:09:41;;;;;;;;;0.00;0.00;;;;;;;;5060085;27;46871;-77
2022/10/01 06:12:08;;;;;;;;;0.00;0.00;;;;;;;;5062371;27;45475;-78
2022/10/01 06:14:34;;;;;;;;;0.00;0.00;;;;;;;;5071963;27;45799;-77
2022/10/01 06:16:59;;;;;;;;;1.00;0.00;;;;;;;;5072058;27;45522;-79
2022/10/01 06:19:24;;;;;;;;;0.67;0.67;;;;;;;;5069091;27;45473;-75
2022/10/01 06:21:50;;;;;;;;;2.00;0.00;;;;;;;;5071589;27;45387;-75
2022/10/01 06:24:16;;;;;;;;;0.25;0.00;;;;;;;;5076128;27;45655;-77
2022/10/01 06:26:42;;;;;;;;;0.00;0.00;;;;;;;;5074171;27;45795;-80
2022/10/01 06:29:09;;;;;;;;;0.00;0.00;;;;;;;;5071260;27;45801;-78
2022/10/01 06:31:34;;;;;;;;;0.75;0.00;;;;;;;;5070466;27;45811;-76
2022/10/01 06:33:59;;;;;;;;;0.00;0.00;;;;;;;;5077545;27;45498;-77
2022/10/01 06:36:27;;;;;;;;;0.00;0.00;;;;;;;;5074487;27;46524;-82
2022/10/01 06:38:54;;;;;;;;;0.00;0.00;;;;;;;;5070594;27;45512;-77
2022/10/01 06:41:19;;;;;;;;;0.00;0.00;;;;;;;;5075451;27;45820;-76
2022/10/01 06:43:47;;;;;;;;;0.00;0.00;;;;;;;;5086012;27;45750;-75
2022/10/01 06:46:12;;;;;;;;;1.25;0.00;;;;;;;;5070484;27;45544;-78
2022/10/01 06:48:38;;;;;;;;;1.25;0.75;;;;;;;;5070724;27;45754;-77
2022/10/01 06:51:04;;;;;;;;;1.00;0.00;;;;;;;;5054038;27;45993;-76
2022/10/01 06:53:30;;;;;;;;;0.00;0.00;;;;;;;;5056817;27;45562;-77
2022/10/01 06:55:56;;;;;;;;;1.33;1.00;;;;;;;;5056628;27;45667;-78
2022/10/01 06:58:25;;;;;;;;;1.00;1.00;;;;;;;;5067355;27;45496;-77
2022/10/01 07:00:50;;;;;;;;;0.00;0.00;;;;;;;;5059722;27;45457;-76
2022/10/01 07:03:17;;;;;;;;;2.25;1.00;;;;;;;;5062877;27;45544;-79
2022/10/01 07:05:43;;;;;;;;;0.00;0.00;;;;;;;;5070193;27;45826;-77
2022/10/01 07:08:09;;;;;;;;;1.33;1.00;;;;;;;;5057111;27;46127;-78
2022/10/01 07:10:34;;;;;;;;;0.25;0.00;;;;;;;;5047511;27;45819;-75
2022/10/01 07:13:13;;;;;;;;;2.00;0.00;;;;;;;;5055745;27;45881;-77
2022/10/01 07:15:38;;;;;;;;;0.25;0.25;;;;;;;;5065735;27;45703;-77
2022/10/01 07:18:04;;;;;;;;;3.00;0.00;;;;;;;;5067823;27;47340;-77
2022/10/01 07:20:34;;;;;;;;;4.25;1.00;;;;;;;;5072517;27;45812;-76
2022/10/01 07:23:00;;;;;;;;;2.75;2.75;;;;;;;;5072732;27;45531;-77
2022/10/01 07:25:25;;;;;;;;;2.00;0.25;;;;;;;;5066828;27;46570;-78
2022/10/01 07:27:58;;;;;;;;;2.25;1.00;;;;;;;;5066666;27;45809;-78
2022/10/01 07:30:24;;;;;;;;;5.00;2.33;;;;;;;;5061749;27;45660;-76
2022/10/01 07:32:49;;;;;;;;;3.67;1.00;;;;;;;;5064366;27;46130;-79
2022/10/01 07:35:15;;;;;;;;;3.00;2.00;;;;;;;;5055944;28;45901;-78
2022/10/01 07:37:40;;;;;;;;;1.00;1.00;;;;;;;;5061398;27;45747;-77
2022/10/01 07:40:06;;;;;;;;;2.00;2.00;;;;;;;;5058323;27;45943;-75
2022/10/01 07:42:31;;;;;;;;;0.00;0.00;;;;;;;;5055297;27;46405;-77
2022/10/01 07:44:57;;;;;;;;;2.00;2.00;;;;;;;;5064905;27;45542;-76
2022/10/01 07:47:22;;;;;;;;;1.75;1.75;;;;;;;;5058796;27;45619;-75
2022/10/01 07:49:47;;;;;;;;;0.67;0.67;;;;;;;;5068633;27;45653;-77
2022/10/01 07:52:13;;;;;;;;;1.00;1.00;;;;;;;;5058428;27;45364;-75
2022/10/01 07:54:38;;;;;;;;;1.00;1.00;;;;;;;;5058038;27;45635;-76
2022/10/01 07:57:04;;;;;;;;;1.67;1.00;;;;;;;;5068814;27;46169;-78
2022/10/01 07:59:32;;;;;;;;;1.00;1.00;;;;;;;;5050581;27;45854;-77
2022/10/01 08:01:58;;;;;;;;;2.75;1.00;;;;;;;;5054528;28;45913;-76
2022/10/01 08:07:08;;;;;;;;;1.00;1.00;;;;;;;;5064300;28;45454;-77
2022/10/01 08:09:34;;;;;;;;;2.00;0.00;;;;;;;;5066576;27;45818;-78
2022/10/01 08:12:01;;;;;;;;;1.67;1.67;;;;;;;;5067862;27;46150;-79
2022/10/01 08:14:27;;;;;;;;;2.00;1.50;;;;;;;;5070702;27;47213;-78
2022/10/01 08:16:56;;;;;;;;;4.33;1.67;;;;;;;;5061715;27;45999;-79
2022/10/01 08:19:21;;;;;;;;;4.00;0.25;;;;;;;;5065944;27;45699;-79
2022/10/01 08:21:47;;;;;;;;;3.50;1.00;;;;;;;;5058196;27;45478;-77
2022/10/01 08:24:12;;;;;;;;;3.67;1.67;;;;;;;;5064437;27;45778;-77
2022/10/01 08:26:38;;;;;;;;;5.50;2.25;;;;;;;;5060177;27;46436;-78
2022/10/01 08:29:03;;;;;;;;;4.33;3.33;;;;;;;;5063099;27;45928;-76
2022/10/01 08:31:28;;;;;;;;;7.00;5.00;;;;;;;;5064784;27;45770;-76
2022/10/01 08:33:54;;;;;;;;;10.33;6.67;;;;;;;;5086385;27;45801;-76
2022/10/01 08:36:20;;;;;;;;;2.25;2.25;;;;;;;;5076399;27;45984;-76
2022/10/01 08:38:46;;;;;;;;;5.00;1.75;;;;;;;;5087428;27;45796;-77
2022/10/01 08:41:22;;;;;;;;;2.75;2.00;;;;;;;;5072373;27;45691;-75
2022/10/01 08:43:49;;;;;;;;;3.75;1.50;;;;;;;;5065304;27;45359;-77
2022/10/01 08:46:20;;;;;;;;;2.00;1.00;;;;;;;;5086741;27;46441;-76
2022/10/01 08:48:45;;;;;;;;;0.00;0.00;;;;;;;;5058887;27;45761;-77
2022/10/01 08:51:29;;;;;;;;;2.00;1.00;;;;;;;;5064812;27;45453;-77
2022/10/01 08:54:06;;;;;;;;;3.25;1.00;;;;;;;;5071874;27;45891;-76
2022/10/01 08:56:36;;;;;;;;;2.00;1.00;;;;;;;;5072039;27;46652;-77
2022/10/01 08:59:09;;;;;;;;;1.67;1.00;;;;;;;;5079273;27;45327;-79
2022/10/01 09:01:35;;;;;;;;;1.00;1.00;;;;;;;;5080146;27;45469;-75
2022/10/01 09:04:01;;;;;;;;;1.33;1.33;;;;;;;;5087138;27;46348;-78
2022/10/01 09:06:27;;;;;;;;;3.25;2.00;;;;;;;;5085826;27;45403;-75
2022/10/01 09:08:52;;;;;;;;;1.25;1.25;;;;;;;;5075555;27;45486;-77
2022/10/01 09:11:36;;;;;;;;;3.50;2.50;;;;;;;;5058566;27;45709;-76
2022/10/01 09:14:11;;;;;;;;;3.00;2.00;;;;;;;;5083806;27;45473;-78
2022/10/01 09:16:41;;;;;;;;;1.25;1.25;;;;;;;;5076490;27;45899;-76
2022/10/01 09:19:17;;;;;;;;;3.25;1.00;;;;;;;;5067543;27;45923;-78
2022/10/01 09:22:00;;;;;;;;;4.75;1.00;;;;;;;;5051831;28;45828;-76
2022/10/01 09:24:29;;;;;;;;;6.00;0.50;;;;;;;;5067071;27;45794;-77
2022/10/01 09:27:01;;;;;;;;;3.50;2.50;;;;;;;;5069280;27;45908;-76
2022/10/01 09:29:30;;;;;;;;;3.00;2.00;;;;;;;;5062507;27;45510;-78
2022/10/01 09:31:58;;;;;;;;;6.25;2.00;;;;;;;;5058227;27;45512;-79
2022/10/01 09:34:36;;;;;;;;;2.50;1.25;;;;;;;;5045297;28;45624;-80
2022/10/01 09:37:19;;;;;;;;;2.25;1.00;;;;;;;;5061767;27;47747;-79
2022/10/01 09:40:04;;;;;;;;;2.25;2.00;;;;;;;;5067083;27;45590;-81
2022/10/01 09:42:30;;;;;;;;;4.25;2.25;;;;;;;;5063691;28;45543;-82
2022/10/01 09:44:56;;;;;;;;;2.75;1.50;;;;;;;;5060466;27;45514;-79
2022/10/01 09:47:24;;;;;;;;;1.50;1.50;;;;;;;;5055903;28;45762;-82
2022/10/01 09:49:51;;;;;;;;;7.00;2.00;;;;;;;;5066568;28;45537;-81
2022/10/01 09:52:17;;;;;;;;;1.75;1.75;;;;;;;;5065541;27;45747;-81
2022/10/01 09:54:55;;;;;;;;;3.25;1.25;;;;;;;;5050348;28;46046;-79
2022/10/01 09:57:26;;;;;;;;;5.50;1.50;;;;;;;;5060352;27;46070;-81
2022/10/01 10:00:00;;;;;;;;;3.00;1.50;;;;;;;;5064282;27;45797;-82
2022/10/01 10:02:30;;;;;;;;;1.00;1.00;;;;;;;;5069704;27;45529;-80
2022/10/01 10:05:15;;;;;;;;;3.00;1.25;;;;;;;;5064373;27;45809;-81
2022/10/01 10:07:55;;;;;;;;;1.50;1.50;;;;;;;;5065065;27;45539;-79
2022/10/01 10:10:20;;;;;;;;;5.50;3.00;;;;;;;;5077614;27;45877;-78
2022/10/01 10:12:47;;;;;;;;;2.25;1.00;;;;;;;;5071919;27;45840;-79
2022/10/01 10:15:27;;;;;;;;;2.25;2.00;;;;;;;;5058497;28;46030;-87
2022/10/01 10:18:38;;;;;;;;;4.50;2.00;;;;;;;;5061194;27;46816;-80
2022/10/01 10:21:09;;;;;;;;;5.50;3.50;;;;;;;;5060392;27;45542;-77
2022/10/01 10:23:50;;;;;;;;;2.50;0.50;;;;;;;;5065109;27;45899;-80
2022/10/01 10:26:19;;;;;;;;;9.25;5.00;;;;;;;;5052931;28;46278;-79
2022/10/01 10:28:48;;;;;;;;;4.00;2.00;;;;;;;;5062363;27;46272;-80
2022/10/01 10:31:28;;;;;;;;;8.75;8.00;;;;;;;;5058076;27;45604;-82
2022/10/01 10:34:06;;;;;;;;;10.67;6.00;;;;;;;;5065638;27;45937;-81
2022/10/01 10:36:42;;;;;;;;;11.67;11.67;;;;;;;;5071905;27;45770;-81
2022/10/01 10:39:28;;;;;;;;;11.33;7.33;;;;;;;;5085323;28;45440;-81
2022/10/01 10:42:17;;;;;;;;;21.67;17.67;;;;;;;;5092740;28;45306;-80
2022/10/01 10:45:07;;;;;;;;;24.67;18.67;;;;;;;;5082437;28;44860;-80
2022/10/01 10:47:44;;;;;;;;;4.00;3.00;;;;;;;;5088271;28;45651;-83
2022/10/01 10:50:34;;;;;;;;;21.67;18.00;;;;;;;;5091230;28;47254;-77
2022/10/01 10:53:27;;;;;;;;;;;;;;;;;;;;;
2022/10/01 10:58:54;;;;;;;;;16.33;14.67;;;;;;;;5065081;28;45209;-80
2022/10/01 11:01:26;;;;;;;;;6.75;5.50;;;;;;;;5088965;27;47443;-80
2022/10/01 11:03:58;;;;;;;;;9.33;9.33;;;;;;;;5079773;27;44802;-79
2022/10/01 11:06:33;;;;;;;;;7.50;3.75;;;;;;;;5079696;28;44770;-83
2022/10/01 11:09:16;;;;;;;;;;;;;;;;;;;;;
2022/10/01 11:36:40;;;;;;;;;9.33;6.33;;;;;;;;5021097;28;45666;-80
2022/10/01 11:39:23;;;;;;;;;5.25;3.00;;;;;;;;5034305;28;44805;-80
2022/10/01 11:41:58;;;;;;;;;3.50;2.00;;;;;;;;5056975;28;45487;-80
2022/10/01 11:44:42;;;;;;;;;2.75;2.25;;;;;;;;5075160;28;45311;-78
2022/10/01 11:47:50;;;;;;;;;;;;;;;;;;;;;
2022/10/01 11:51:01;;;;;;;;;10.75;4.50;;;;;;;;5050699;27;74373;-80
2022/10/01 11:53:43;;;;;;;;;3.00;3.00;;;;;;;;5005580;28;45416;-78
2022/10/01 11:59:35;;;;;;;;;4.25;1.75;;;;;;;;5076030;27;45442;-79
2022/10/01 12:02:23;;;;;;;;;6.25;3.25;;;;;;;;4979222;28;45619;-78
2022/10/01 12:04:57;;;;;;;;;5.00;2.00;;;;;;;;5035505;28;45457;-78
2022/10/01 12:07:44;;;;;;;;;2.25;2.25;;;;;;;;5077191;27;45297;-82
2022/10/01 12:10:29;;;;;;;;;4.50;3.00;;;;;;;;5075666;27;46026;-81
2022/10/01 12:13:38;;;;;;;;;5.00;1.75;;;;;;;;5060083;28;45369;-81
2022/10/01 12:16:38;;;;;;;;;4.25;2.50;;;;;;;;5070412;28;45777;-79
2022/10/01 12:19:25;;;;;;;;;3.25;2.25;;;;;;;;5079845;27;45355;-79
2022/10/01 12:22:01;;;;;;;;;4.75;3.75;;;;;;;;5061256;28;46218;-80
2022/10/01 12:24:54;;;;;;;;;3.25;1.75;;;;;;;;5069577;27;45480;-80
2022/10/01 12:27:32;;;;;;;;;2.25;1.00;;;;;;;;5072077;28;45471;-78
2022/10/01 12:30:01;;;;;;;;;3.50;2.75;;;;;;;;5061992;27;46029;-79
2022/10/01 12:32:29;;;;;;;;;3.25;2.75;;;;;;;;5070001;28;45632;-77
2022/10/01 12:35:04;;;;;;;;;4.25;2.25;;;;;;;;5062376;27;45498;-77
2022/10/01 12:37:57;;;;;;;;;5.25;2.50;;;;;;;;5044748;28;45694;-80
2022/10/01 12:40:41;;;;;;;;;2.00;2.00;;;;;;;;5079463;27;45311;-80
2022/10/01 12:43:28;;;;;;;;;3.75;0.00;;;;;;;;5056206;28;46410;-81
2022/10/01 12:46:14;;;;;;;;;2.00;1.50;;;;;;;;5080005;28;45822;-80
2022/10/01 12:48:47;;;;;;;;;3.50;1.00;;;;;;;;5058906;27;45601;-78
2022/10/01 12:51:31;;;;;;;;;2.00;1.75;;;;;;;;5074633;27;45783;-75
2022/10/01 12:53:56;;;;;;;;;2.50;1.75;;;;;;;;5076868;28;45403;-77
2022/10/01 12:56:33;;;;;;;;;1.25;0.75;;;;;;;;5072428;28;44825;-77
2022/10/01 12:59:05;;;;;;;;;3.00;2.00;;;;;;;;5055627;28;45807;-78
2022/10/01 13:01:36;;;;;;;;;0.25;0.00;;;;;;;;5071879;28;45372;-77
2022/10/01 13:04:16;;;;;;;;;3.00;2.00;;;;;;;;5063405;27;45766;-77
2022/10/01 13:06:44;;;;;;;;;1.75;0.75;;;;;;;;5071454;28;45758;-75
2022/10/01 13:09:16;;;;;;;;;4.67;3.00;;;;;;;;5066121;27;45863;-78
2022/10/01 13:12:06;;;;;;;;;2.75;2.00;;;;;;;;5054407;28;45440;-78
2022/10/01 13:14:32;;;;;;;;;1.00;1.00;;;;;;;;5004808;28;46923;-80
2022/10/01 13:17:06;;;;;;;;;4.25;2.00;;;;;;;;5057290;28;45419;-79
2022/10/01 13:19:50;;;;;;;;;1.00;1.00;;;;;;;;5079795;27;45953;-80
2022/10/01 13:22:34;;;;;;;;;3.25;1.75;;;;;;;;5073815;27;45870;-77
2022/10/01 13:25:14;;;;;;;;;4.00;1.75;;;;;;;;5066511;28;45840;-77
2022/10/01 13:27:43;;;;;;;;;2.50;2.00;;;;;;;;5055814;28;44802;-77
2022/10/01 13:30:17;;;;;;;;;3.75;2.00;;;;;;;;5041909;27;45499;-76
2022/10/01 13:32:53;;;;;;;;;2.00;2.00;;;;;;;;5048870;28;46471;-77
2022/10/01 13:35:27;;;;;;;;;4.75;1.00;;;;;;;;5072358;27;46121;-78
2022/10/01 13:37:53;;;;;;;;;3.25;2.00;;;;;;;;5070139;28;45634;-77
2022/10/01 13:40:39;;;;;;;;;2.00;2.00;;;;;;;;5075999;27;45789;-77
2022/10/01 13:43:13;;;;;;;;;2.25;1.25;;;;;;;;5073402;27;45628;-77
2022/10/01 13:45:45;;;;;;;;;3.00;3.00;;;;;;;;5068633;27;46582;-79
2022/10/01 13:48:31;;;;;;;;;2.50;1.75;;;;;;;;5082038;27;45581;-81
2022/10/01 13:51:04;;;;;;;;;3.25;0.50;;;;;;;;5055686;28;45454;-79
2022/10/01 13:53:35;;;;;;;;;1.50;1.50;;;;;;;;5077021;28;45462;-77
2022/10/01 13:56:01;;;;;;;;;1.25;1.25;;;;;;;;5074082;27;45845;-78
2022/10/01 13:58:34;;;;;;;;;0.75;0.50;;;;;;;;5074988;27;45472;-81
2022/10/01 14:01:01;;;;;;;;;2.00;2.00;;;;;;;;5076667;27;46637;-78
2022/10/01 14:03:28;;;;;;;;;1.75;1.00;;;;;;;;5062322;27;45581;-78
2022/10/01 14:05:57;;;;;;;;;4.25;1.50;;;;;;;;5066661;27;45354;-78
2022/10/01 14:08:52;;;;;;;;;4.00;4.00;;;;;;;;5046902;28;45375;-77
2022/10/01 14:16:55;;;;;;;;;1.75;1.00;;;;;;;;5074762;28;45755;-77
2022/10/01 14:19:23;;;;;;;;;1.25;0.00;;;;;;;;5075111;27;46246;-78
2022/10/01 14:21:59;;;;;;;;;1.00;0.00;;;;;;;;5063395;28;45386;-75
2022/10/01 14:24:45;;;;;;;;;2.00;1.00;;;;;;;;5067160;28;45686;-77
2022/10/01 14:27:20;;;;;;;;;2.00;1.00;;;;;;;;5045053;27;45862;-80
2022/10/01 14:30:04;;;;;;;;;0.75;0.75;;;;;;;;5077899;28;45559;-80
2022/10/01 14:32:32;;;;;;;;;1.00;1.00;;;;;;;;5075949;27;45570;-80
2022/10/01 14:35:04;;;;;;;;;1.00;1.00;;;;;;;;5098256;22;45935;-71
2022/10/01 14:37:29;;;;;;;;;2.25;1.25;;;;;;;;5087739;27;46411;-72
2022/10/01 14:40:21;;;;;;;;;4.50;0.00;;;;;;;;5085056;27;45633;-72
2022/10/01 14:43:16;;;;;;;;;4.00;2.00;;;;;;;;5086554;27;45684;-72
2022/10/01 14:45:50;;;;;;;;;5.00;1.00;;;;;;;;5075175;27;45622;-73
2022/10/01 14:48:15;;;;;;;;;1.75;1.75;;;;;;;;5092353;27;45364;-73
2022/10/01 14:50:45;;;;;;;;;1.75;1.00;;;;;;;;5093193;27;45501;-72
2022/10/01 14:53:15;;;;;;;;;0.75;0.50;;;;;;;;5075215;27;45938;-74
2022/10/01 14:55:40;;;;;;;;;2.00;0.75;;;;;;;;5083687;27;45811;-73
2022/10/01 14:58:06;;;;;;;;;1.50;0.75;;;;;;;;5092211;27;46308;-74
2022/10/01 15:00:32;;;;;;;;;2.00;2.00;;;;;;;;5082543;27;45511;-74
2022/10/01 15:03:03;;;;;;;;;2.00;2.00;;;;;;;;5084374;27;45353;-74
2022/10/01 15:05:32;;;;;;;;;1.75;1.00;;;;;;;;5081986;27;45755;-74
2022/10/01 15:08:18;;;;;;;;;4.00;2.25;;;;;;;;5066944;27;45952;-77
2022/10/01 15:10:45;;;;;;;;;2.00;1.00;;;;;;;;5086752;27;45690;-76
2022/10/01 15:13:17;;;;;;;;;1.00;1.00;;;;;;;;5066188;27;45394;-76
2022/10/01 15:15:42;;;;;;;;;4.25;2.25;;;;;;;;5082174;27;45874;-75
2022/10/01 15:18:13;;;;;;;;;0.50;0.50;;;;;;;;5086396;27;45993;-74
2022/10/01 15:20:48;;;;;;;;;2.50;1.25;;;;;;;;5091294;27;45704;-75
2022/10/01 15:23:13;;;;;;;;;0.50;0.50;;;;;;;;5065098;27;45546;-74
2022/10/01 15:25:42;;;;;;;;;1.50;1.50;;;;;;;;5077046;27;45427;-74
2022/10/01 15:28:14;;;;;;;;;4.00;1.50;;;;;;;;5080104;27;45707;-74
2022/10/01 15:30:41;;;;;;;;;3.25;1.25;;;;;;;;5087440;27;45775;-72
2022/10/01 15:33:18;;;;;;;;;2.00;1.00;;;;;;;;5085642;27;45489;-74
2022/10/01 15:35:43;;;;;;;;;3.00;1.00;;;;;;;;5089800;27;45487;-73
2022/10/01 15:38:09;;;;;;;;;1.00;1.00;;;;;;;;5088752;27;46016;-74
2022/10/01 15:40:36;;;;;;;;;3.50;3.25;;;;;;;;5082203;27;47009;-71
2022/10/01 15:43:13;;;;;;;;;3.50;3.50;;;;;;;;5089700;27;45480;-72
2022/10/01 15:45:39;;;;;;;;;5.00;2.00;;;;;;;;5084180;27;45723;-72
2022/10/01 15:48:05;;;;;;;;;0.25;0.25;;;;;;;;5071570;27;46216;-75